sensor_id;sensor_type;location;lat;lon;timestamp;pressure;altitude;pressure_sealevel;temperature;humidity
67740;BME280;54536;50.090;14.420;2023-10-31T00:02:09;97397.63;;;16.30;70.90
67740;BME280;54536;50.090;14.420;2023-10-31T00:04:36;97395.28;;;16.40;70.38
67740;BME280;54536;50.090;14.420;2023-10-31T00:07:01;97385.69;;;16.39;70.36
67740;BME280;54536;50.090;14.420;2023-10-31T00:09:29;97395.72;;;16.37;70.55
67740;BME280;54536;50.090;14.420;2023-10-31T00:11:55;97392.41;;;16.42;70.31
67740;BME280;54536;50.090;14.420;2023-10-31T00:14:21;97390.41;;;16.37;70.60
67740;BME280;54536;50.090;14.420;2023-10-31T00:16:47;97391.28;;;16.31;71.03
67740;BME280;54536;50.090;14.420;2023-10-31T00:19:14;97396.16;;;16.34;70.74
67740;BME280;54536;50.090;14.420;2023-10-31T00:21:40;97389.16;;;16.21;71.22
67740;BME280;54536;50.090;14.420;2023-10-31T00:24:07;97391.81;;;16.21;71.38
67740;BME280;54536;50.090;14.420;2023-10-31T00:26:33;97395.13;;;16.17;71.30
67740;BME280;54536;50.090;14.420;2023-10-31T00:29:00;97397.00;;;16.16;71.47
67740;BME280;54536;50.090;14.420;2023-10-31T00:31:26;97390.56;;;16.05;71.98
67740;BME280;54536;50.090;14.420;2023-10-31T00:33:52;97393.28;;;16.17;71.54
67740;BME280;54536;50.090;14.420;2023-10-31T00:36:18;97390.34;;;16.07;72.00
67740;BME280;54536;50.090;14.420;2023-10-31T00:38:44;97388.88;;;16.11;71.82
67740;BME280;54536;50.090;14.420;2023-10-31T00:41:10;97397.63;;;16.11;72.01
67740;BME280;54536;50.090;14.420;2023-10-31T00:43:37;97401.16;;;16.05;72.35
67740;BME280;54536;50.090;14.420;2023-10-31T00:46:03;97427.81;;;15.92;72.75
67740;BME280;54536;50.090;14.420;2023-10-31T00:48:30;97447.28;;;16.04;72.53
67740;BME280;54536;50.090;14.420;2023-10-31T00:51:04;97429.22;;;15.95;72.63
67740;BME280;54536;50.090;14.420;2023-10-31T00:53:32;97431.88;;;15.95;72.66
67740;BME280;54536;50.090;14.420;2023-10-31T00:55:58;97432.41;;;16.03;71.77
67740;BME280;54536;50.090;14.420;2023-10-31T00:58:24;97430.50;;;16.10;71.44
67740;BME280;54536;50.090;14.420;2023-10-31T01:00:50;97438.16;;;16.00;71.69
67740;BME280;54536;50.090;14.420;2023-10-31T01:03:16;97443.75;;;16.10;71.17
67740;BME280;54536;50.090;14.420;2023-10-31T01:05:43;97434.75;;;16.11;70.50
67740;BME280;54536;50.090;14.420;2023-10-31T01:08:09;97460.69;;;16.09;70.24
67740;BME280;54536;50.090;14.420;2023-10-31T01:10:35;97459.88;;;16.09;69.44
67740;BME280;54536;50.090;14.420;2023-10-31T01:13:01;97458.47;;;16.06;69.25
67740;BME280;54536;50.090;14.420;2023-10-31T01:15:27;97448.88;;;16.05;69.21
67740;BME280;54536;50.090;14.420;2023-10-31T01:17:54;97447.94;;;16.00;69.41
67740;BME280;54536;50.090;14.420;2023-10-31T01:20:20;97428.50;;;16.06;69.35
67740;BME280;54536;50.090;14.420;2023-10-31T01:22:46;97424.22;;;16.05;69.80
67740;BME280;54536;50.090;14.420;2023-10-31T01:25:12;97420.13;;;16.09;69.77
67740;BME280;54536;50.090;14.420;2023-10-31T01:27:38;97422.31;;;16.12;69.72
67740;BME280;54536;50.090;14.420;2023-10-31T01:30:05;97427.91;;;16.04;70.01
67740;BME280;54536;50.090;14.420;2023-10-31T01:32:31;97421.50;;;16.11;69.45
67740;BME280;54536;50.090;14.420;2023-10-31T01:34:57;97431.28;;;16.11;69.44
67740;BME280;54536;50.090;14.420;2023-10-31T01:37:24;97432.41;;;16.03;69.60
67740;BME280;54536;50.090;14.420;2023-10-31T01:39:50;97430.81;;;15.96;69.41
67740;BME280;54536;50.090;14.420;2023-10-31T01:42:16;97443.22;;;16.02;69.32
67740;BME280;54536;50.090;14.420;2023-10-31T01:44:43;97451.84;;;15.97;69.12
67740;BME280;54536;50.090;14.420;2023-10-31T01:47:09;97445.88;;;16.02;68.77
67740;BME280;54536;50.090;14.420;2023-10-31T01:49:36;97453.81;;;16.02;68.43
67740;BME280;54536;50.090;14.420;2023-10-31T01:52:03;97453.97;;;16.07;68.26
67740;BME280;54536;50.090;14.420;2023-10-31T01:54:30;97456.47;;;16.02;68.75
67740;BME280;54536;50.090;14.420;2023-10-31T01:56:57;97462.13;;;16.05;68.87
67740;BME280;54536;50.090;14.420;2023-10-31T01:59:25;97471.31;;;16.09;68.82
67740;BME280;54536;50.090;14.420;2023-10-31T02:01:52;97463.47;;;16.14;68.50
67740;BME280;54536;50.090;14.420;2023-10-31T02:04:19;97480.00;;;16.17;68.46
67740;BME280;54536;50.090;14.420;2023-10-31T02:06:45;97484.31;;;16.11;69.00
67740;BME280;54536;50.090;14.420;2023-10-31T02:09:12;97481.84;;;16.16;68.53
67740;BME280;54536;50.090;14.420;2023-10-31T02:11:38;97478.81;;;16.12;69.09
67740;BME280;54536;50.090;14.420;2023-10-31T02:14:04;97477.03;;;16.06;69.72
67740;BME280;54536;50.090;14.420;2023-10-31T02:16:30;97486.91;;;15.99;70.13
67740;BME280;54536;50.090;14.420;2023-10-31T02:18:56;97495.97;;;15.85;70.38
67740;BME280;54536;50.090;14.420;2023-10-31T02:21:25;97495.91;;;15.91;70.72
67740;BME280;54536;50.090;14.420;2023-10-31T02:23:59;97503.44;;;15.95;70.80
67740;BME280;54536;50.090;14.420;2023-10-31T02:26:33;97494.19;;;15.79;71.93
67740;BME280;54536;50.090;14.420;2023-10-31T02:29:00;97498.91;;;15.77;72.28
67740;BME280;54536;50.090;14.420;2023-10-31T02:31:27;97499.34;;;15.74;72.48
67740;BME280;54536;50.090;14.420;2023-10-31T02:33:54;97507.06;;;15.75;72.97
67740;BME280;54536;50.090;14.420;2023-10-31T02:36:20;97506.88;;;15.77;73.57
67740;BME280;54536;50.090;14.420;2023-10-31T02:38:47;97503.50;;;15.88;73.49
67740;BME280;54536;50.090;14.420;2023-10-31T02:41:14;97512.09;;;15.83;73.20
67740;BME280;54536;50.090;14.420;2023-10-31T02:43:41;97519.31;;;15.76;74.24
67740;BME280;54536;50.090;14.420;2023-10-31T02:46:07;97520.34;;;15.68;73.82
67740;BME280;54536;50.090;14.420;2023-10-31T02:48:33;97522.16;;;15.75;73.93
67740;BME280;54536;50.090;14.420;2023-10-31T02:51:06;97521.91;;;15.83;73.39
67740;BME280;54536;50.090;14.420;2023-10-31T02:53:35;97531.72;;;15.76;74.02
67740;BME280;54536;50.090;14.420;2023-10-31T02:56:02;97527.72;;;15.66;74.92
67740;BME280;54536;50.090;14.420;2023-10-31T02:58:28;97521.41;;;15.67;75.03
67740;BME280;54536;50.090;14.420;2023-10-31T03:00:55;97518.31;;;15.71;74.87
67740;BME280;54536;50.090;14.420;2023-10-31T03:03:21;97524.69;;;15.56;75.85
67740;BME280;54536;50.090;14.420;2023-10-31T03:05:47;97525.88;;;15.67;76.01
67740;BME280;54536;50.090;14.420;2023-10-31T03:08:13;97521.47;;;15.54;75.92
67740;BME280;54536;50.090;14.420;2023-10-31T03:10:41;97523.25;;;15.67;76.38
67740;BME280;54536;50.090;14.420;2023-10-31T03:13:07;97534.47;;;15.56;76.39
67740;BME280;54536;50.090;14.420;2023-10-31T03:15:33;97538.53;;;15.58;75.68
67740;BME280;54536;50.090;14.420;2023-10-31T03:17:59;97540.63;;;15.50;76.23
67740;BME280;54536;50.090;14.420;2023-10-31T03:20:26;97541.19;;;15.58;75.95
67740;BME280;54536;50.090;14.420;2023-10-31T03:22:52;97553.06;;;15.49;76.13
67740;BME280;54536;50.090;14.420;2023-10-31T03:25:18;97563.53;;;15.37;75.99
67740;BME280;54536;50.090;14.420;2023-10-31T03:27:44;97566.34;;;15.42;76.35
67740;BME280;54536;50.090;14.420;2023-10-31T03:30:11;97568.19;;;15.42;76.59
67740;BME280;54536;50.090;14.420;2023-10-31T03:32:37;97562.88;;;15.42;77.00
67740;BME280;54536;50.090;14.420;2023-10-31T03:35:04;97566.31;;;15.49;76.85
67740;BME280;54536;50.090;14.420;2023-10-31T03:37:30;97569.22;;;15.41;77.47
67740;BME280;54536;50.090;14.420;2023-10-31T03:39:56;97573.31;;;15.37;77.29
67740;BME280;54536;50.090;14.420;2023-10-31T03:42:22;97576.56;;;15.39;76.84
67740;BME280;54536;50.090;14.420;2023-10-31T03:44:49;97572.09;;;15.33;76.99
67740;BME280;54536;50.090;14.420;2023-10-31T03:47:17;97574.97;;;15.31;77.23
67740;BME280;54536;50.090;14.420;2023-10-31T03:49:44;97571.25;;;15.39;76.67
67740;BME280;54536;50.090;14.420;2023-10-31T03:52:09;97574.94;;;15.38;76.09
67740;BME280;54536;50.090;14.420;2023-10-31T03:54:36;97572.72;;;15.35;76.91
67740;BME280;54536;50.090;14.420;2023-10-31T03:57:02;97567.38;;;15.41;76.72
67740;BME280;54536;50.090;14.420;2023-10-31T03:59:28;97568.22;;;15.35;77.05
67740;BME280;54536;50.090;14.420;2023-10-31T04:01:54;97574.75;;;15.33;77.13
67740;BME280;54536;50.090;14.420;2023-10-31T04:04:20;97574.94;;;15.38;76.90
67740;BME280;54536;50.090;14.420;2023-10-31T04:06:47;97584.38;;;15.27;76.38
67740;BME280;54536;50.090;14.420;2023-10-31T04:09:13;97585.53;;;15.38;76.62
67740;BME280;54536;50.090;14.420;2023-10-31T04:11:39;97583.75;;;15.25;77.23
67740;BME280;54536;50.090;14.420;2023-10-31T04:14:07;97595.75;;;15.34;76.89
67740;BME280;54536;50.090;14.420;2023-10-31T04:16:39;97597.53;;;15.40;77.29
67740;BME280;54536;50.090;14.420;2023-10-31T04:19:06;97589.34;;;15.49;76.80
67740;BME280;54536;50.090;14.420;2023-10-31T04:21:32;97588.56;;;15.41;76.45
67740;BME280;54536;50.090;14.420;2023-10-31T04:23:59;97583.28;;;15.41;76.55
67740;BME280;54536;50.090;14.420;2023-10-31T04:26:25;97585.31;;;15.39;76.63
67740;BME280;54536;50.090;14.420;2023-10-31T04:28:51;97592.28;;;15.34;76.65
67740;BME280;54536;50.090;14.420;2023-10-31T04:31:18;97585.38;;;15.26;76.00
67740;BME280;54536;50.090;14.420;2023-10-31T04:33:44;97585.38;;;15.26;76.33
67740;BME280;54536;50.090;14.420;2023-10-31T04:36:10;97583.34;;;15.28;75.97
67740;BME280;54536;50.090;14.420;2023-10-31T04:38:37;97592.50;;;15.26;75.77
67740;BME280;54536;50.090;14.420;2023-10-31T04:41:04;97597.56;;;15.34;75.46
67740;BME280;54536;50.090;14.420;2023-10-31T04:43:30;97593.53;;;15.25;75.51
67740;BME280;54536;50.090;14.420;2023-10-31T04:45:56;97586.44;;;15.18;75.66
67740;BME280;54536;50.090;14.420;2023-10-31T04:48:22;97590.09;;;15.24;75.86
67740;BME280;54536;50.090;14.420;2023-10-31T04:50:49;97596.19;;;15.25;75.59
67740;BME280;54536;50.090;14.420;2023-10-31T04:53:15;97600.69;;;15.24;75.38
67740;BME280;54536;50.090;14.420;2023-10-31T04:55:41;97590.28;;;15.22;75.54
67740;BME280;54536;50.090;14.420;2023-10-31T04:58:07;97603.06;;;15.32;75.04
67740;BME280;54536;50.090;14.420;2023-10-31T05:00:33;97596.78;;;15.27;75.23
67740;BME280;54536;50.090;14.420;2023-10-31T05:03:00;97607.38;;;15.20;75.39
67740;BME280;54536;50.090;14.420;2023-10-31T05:05:28;97614.06;;;15.36;74.77
67740;BME280;54536;50.090;14.420;2023-10-31T05:07:54;97619.22;;;15.17;75.46
67740;BME280;54536;50.090;14.420;2023-10-31T05:10:20;97621.59;;;15.32;75.15
67740;BME280;54536;50.090;14.420;2023-10-31T05:12:47;97620.38;;;15.35;74.94
67740;BME280;54536;50.090;14.420;2023-10-31T05:15:13;97619.41;;;15.22;74.59
67740;BME280;54536;50.090;14.420;2023-10-31T05:17:39;97633.25;;;15.25;74.67
67740;BME280;54536;50.090;14.420;2023-10-31T05:20:05;97633.84;;;15.27;74.48
67740;BME280;54536;50.090;14.420;2023-10-31T05:22:32;97638.56;;;15.25;74.79
67740;BME280;54536;50.090;14.420;2023-10-31T05:24:58;97649.72;;;15.27;74.74
67740;BME280;54536;50.090;14.420;2023-10-31T05:27:24;97642.81;;;15.26;74.95
67740;BME280;54536;50.090;14.420;2023-10-31T05:29:50;97642.19;;;15.30;74.37
67740;BME280;54536;50.090;14.420;2023-10-31T05:32:17;97649.94;;;15.32;74.06
67740;BME280;54536;50.090;14.420;2023-10-31T05:34:43;97660.13;;;15.28;74.50
67740;BME280;54536;50.090;14.420;2023-10-31T05:37:09;97664.78;;;15.33;73.92
67740;BME280;54536;50.090;14.420;2023-10-31T05:39:35;97672.16;;;15.24;74.00
67740;BME280;54536;50.090;14.420;2023-10-31T05:42:03;97694.16;;;15.31;73.79
67740;BME280;54536;50.090;14.420;2023-10-31T05:44:29;97695.16;;;15.30;74.23
67740;BME280;54536;50.090;14.420;2023-10-31T05:46:55;97697.41;;;15.27;74.11
67740;BME280;54536;50.090;14.420;2023-10-31T05:49:22;97697.81;;;15.23;74.07
67740;BME280;54536;50.090;14.420;2023-10-31T05:51:51;97705.16;;;15.28;74.16
67740;BME280;54536;50.090;14.420;2023-10-31T05:54:18;97720.25;;;15.21;73.67
67740;BME280;54536;50.090;14.420;2023-10-31T05:56:44;97718.97;;;15.30;73.26
67740;BME280;54536;50.090;14.420;2023-10-31T05:59:11;97722.03;;;15.40;73.21
67740;BME280;54536;50.090;14.420;2023-10-31T06:01:38;97723.47;;;15.30;73.21
67740;BME280;54536;50.090;14.420;2023-10-31T06:04:04;97722.25;;;15.32;72.82
67740;BME280;54536;50.090;14.420;2023-10-31T06:06:37;97720.63;;;15.31;73.07
67740;BME280;54536;50.090;14.420;2023-10-31T06:09:04;97724.91;;;15.32;72.63
67740;BME280;54536;50.090;14.420;2023-10-31T06:11:30;97726.13;;;15.23;72.86
67740;BME280;54536;50.090;14.420;2023-10-31T06:13:56;97721.63;;;15.37;72.73
67740;BME280;54536;50.090;14.420;2023-10-31T06:16:23;97734.66;;;15.38;72.19
67740;BME280;54536;50.090;14.420;2023-10-31T06:18:49;97743.03;;;15.35;71.45
67740;BME280;54536;50.090;14.420;2023-10-31T06:21:16;97763.41;;;15.28;72.08
67740;BME280;54536;50.090;14.420;2023-10-31T06:23:42;97769.28;;;15.30;71.81
67740;BME280;54536;50.090;14.420;2023-10-31T06:26:11;97769.09;;;15.32;71.13
67740;BME280;54536;50.090;14.420;2023-10-31T06:28:37;97774.41;;;15.32;71.17
67740;BME280;54536;50.090;14.420;2023-10-31T06:31:05;97785.19;;;15.30;71.39
67740;BME280;54536;50.090;14.420;2023-10-31T06:33:31;97793.97;;;15.37;71.08
67740;BME280;54536;50.090;14.420;2023-10-31T06:35:57;97791.50;;;15.29;70.36
67740;BME280;54536;50.090;14.420;2023-10-31T06:38:23;97793.56;;;15.27;70.80
67740;BME280;54536;50.090;14.420;2023-10-31T06:40:50;97801.09;;;15.23;70.94
67740;BME280;54536;50.090;14.420;2023-10-31T06:43:16;97799.66;;;15.34;69.86
67740;BME280;54536;50.090;14.420;2023-10-31T06:45:43;97803.13;;;15.21;68.45
67740;BME280;54536;50.090;14.420;2023-10-31T06:48:09;97803.31;;;15.27;68.20
67740;BME280;54536;50.090;14.420;2023-10-31T06:50:35;97806.38;;;15.30;68.06
67740;BME280;54536;50.090;14.420;2023-10-31T06:53:01;97816.56;;;15.27;67.79
67740;BME280;54536;50.090;14.420;2023-10-31T06:55:28;97815.34;;;15.29;67.65
67740;BME280;54536;50.090;14.420;2023-10-31T06:57:54;97831.63;;;15.26;67.00
67740;BME280;54536;50.090;14.420;2023-10-31T07:00:20;97835.94;;;15.27;67.06
67740;BME280;54536;50.090;14.420;2023-10-31T07:02:46;97839.19;;;15.29;66.46
67740;BME280;54536;50.090;14.420;2023-10-31T07:05:14;97837.75;;;15.27;66.54
67740;BME280;54536;50.090;14.420;2023-10-31T07:07:41;97833.47;;;15.32;66.15
67740;BME280;54536;50.090;14.420;2023-10-31T07:10:08;97836.94;;;15.26;65.90
67740;BME280;54536;50.090;14.420;2023-10-31T07:12:34;97841.81;;;15.29;66.02
67740;BME280;54536;50.090;14.420;2023-10-31T07:15:00;97850.41;;;15.31;65.26
67740;BME280;54536;50.090;14.420;2023-10-31T07:17:26;97851.81;;;15.34;64.87
67740;BME280;54536;50.090;14.420;2023-10-31T07:19:53;97859.16;;;15.38;64.99
67740;BME280;54536;50.090;14.420;2023-10-31T07:22:19;97858.50;;;15.50;64.79
67740;BME280;54536;50.090;14.420;2023-10-31T07:24:45;97858.94;;;15.40;63.95
67740;BME280;54536;50.090;14.420;2023-10-31T07:27:11;97857.50;;;15.51;64.03
67740;BME280;54536;50.090;14.420;2023-10-31T07:29:40;97857.28;;;15.52;64.03
67740;BME280;54536;50.090;14.420;2023-10-31T07:32:10;97864.22;;;15.46;63.28
67740;BME280;54536;50.090;14.420;2023-10-31T07:34:38;97871.34;;;15.46;63.30
67740;BME280;54536;50.090;14.420;2023-10-31T07:37:06;97879.94;;;15.48;63.13
67740;BME280;54536;50.090;14.420;2023-10-31T07:39:33;97889.50;;;15.36;63.17
67740;BME280;54536;50.090;14.420;2023-10-31T07:41:59;97902.34;;;15.45;63.23
67740;BME280;54536;50.090;14.420;2023-10-31T07:44:25;97904.97;;;15.32;62.87
67740;BME280;54536;50.090;14.420;2023-10-31T07:46:51;97918.44;;;15.31;62.88
67740;BME280;54536;50.090;14.420;2023-10-31T07:49:17;97925.75;;;15.35;63.10
67740;BME280;54536;50.090;14.420;2023-10-31T07:51:43;97922.31;;;15.28;63.25
67740;BME280;54536;50.090;14.420;2023-10-31T07:54:10;97917.19;;;15.27;62.95
67740;BME280;54536;50.090;14.420;2023-10-31T07:56:36;97923.75;;;15.31;62.99
67740;BME280;54536;50.090;14.420;2023-10-31T07:59:03;97922.91;;;15.30;63.06
67740;BME280;54536;50.090;14.420;2023-10-31T08:01:29;97925.13;;;15.27;62.95
67740;BME280;54536;50.090;14.420;2023-10-31T08:03:55;97928.81;;;15.26;63.50
67740;BME280;54536;50.090;14.420;2023-10-31T08:06:21;97921.09;;;15.37;63.44
67740;BME280;54536;50.090;14.420;2023-10-31T08:09:00;97913.56;;;15.34;62.81
67740;BME280;54536;50.090;14.420;2023-10-31T08:11:26;97900.09;;;15.42;63.26
67740;BME280;54536;50.090;14.420;2023-10-31T08:13:52;97908.25;;;15.48;63.14
67740;BME280;54536;50.090;14.420;2023-10-31T08:16:19;97906.19;;;15.36;61.92
67740;BME280;54536;50.090;14.420;2023-10-31T08:18:46;97897.66;;;15.48;62.40
67740;BME280;54536;50.090;14.420;2023-10-31T08:21:12;97885.00;;;15.43;62.08
67740;BME280;54536;50.090;14.420;2023-10-31T08:23:39;97891.34;;;15.42;61.51
67740;BME280;54536;50.090;14.420;2023-10-31T08:26:05;97915.97;;;15.42;61.52
67740;BME280;54536;50.090;14.420;2023-10-31T08:28:31;97927.59;;;15.35;61.05
67740;BME280;54536;50.090;14.420;2023-10-31T08:30:57;97949.59;;;15.29;60.12
67740;BME280;54536;50.090;14.420;2023-10-31T08:33:24;97980.75;;;15.27;60.30
67740;BME280;54536;50.090;14.420;2023-10-31T08:35:50;97997.25;;;15.29;60.09
67740;BME280;54536;50.090;14.420;2023-10-31T08:38:17;98009.28;;;15.25;59.69
67740;BME280;54536;50.090;14.420;2023-10-31T08:40:43;98017.41;;;15.16;59.97
67740;BME280;54536;50.090;14.420;2023-10-31T08:43:10;98030.25;;;15.26;59.98
67740;BME280;54536;50.090;14.420;2023-10-31T08:45:36;98032.91;;;15.26;59.48
67740;BME280;54536;50.090;14.420;2023-10-31T08:48:03;98032.50;;;15.29;59.72
67740;BME280;54536;50.090;14.420;2023-10-31T08:50:29;98033.72;;;15.27;59.74
67740;BME280;54536;50.090;14.420;2023-10-31T08:52:55;98037.38;;;15.26;59.32
67740;BME280;54536;50.090;14.420;2023-10-31T08:55:22;98046.56;;;15.36;59.15
67740;BME280;54536;50.090;14.420;2023-10-31T08:57:48;98054.53;;;15.43;59.02
67740;BME280;54536;50.090;14.420;2023-10-31T09:00:15;98050.66;;;15.32;58.96
67740;BME280;54536;50.090;14.420;2023-10-31T09:02:44;98045.13;;;15.20;58.75
67740;BME280;54536;50.090;14.420;2023-10-31T09:05:10;98045.53;;;15.24;58.21
67740;BME280;54536;50.090;14.420;2023-10-31T09:07:37;98035.34;;;15.21;58.70
67740;BME280;54536;50.090;14.420;2023-10-31T09:10:03;98043.28;;;15.21;57.77
67740;BME280;54536;50.090;14.420;2023-10-31T09:12:31;98047.34;;;15.23;58.02
67740;BME280;54536;50.090;14.420;2023-10-31T09:14:57;98050.38;;;15.14;58.10
67740;BME280;54536;50.090;14.420;2023-10-31T09:17:24;98052.06;;;15.21;58.54
67740;BME280;54536;50.090;14.420;2023-10-31T09:19:50;98065.91;;;15.30;57.87
67740;BME280;54536;50.090;14.420;2023-10-31T09:22:16;98070.38;;;15.23;58.14
67740;BME280;54536;50.090;14.420;2023-10-31T09:24:42;98064.91;;;15.25;58.16
67740;BME280;54536;50.090;14.420;2023-10-31T09:27:10;98066.16;;;15.35;58.15
67740;BME280;54536;50.090;14.420;2023-10-31T09:29:35;98064.31;;;15.42;58.26
67740;BME280;54536;50.090;14.420;2023-10-31T09:32:02;98063.50;;;15.42;57.70
67740;BME280;54536;50.090;14.420;2023-10-31T09:34:29;98059.88;;;15.56;58.26
67740;BME280;54536;50.090;14.420;2023-10-31T09:36:55;98060.47;;;15.52;58.01
67740;BME280;54536;50.090;14.420;2023-10-31T09:39:22;98052.34;;;15.60;57.56
67740;BME280;54536;50.090;14.420;2023-10-31T09:41:51;98046.44;;;15.58;56.63
67740;BME280;54536;50.090;14.420;2023-10-31T09:44:17;98050.91;;;15.51;56.86
67740;BME280;54536;50.090;14.420;2023-10-31T09:46:45;98052.31;;;15.46;56.62
67740;BME280;54536;50.090;14.420;2023-10-31T09:49:11;98028.47;;;15.46;56.53
67740;BME280;54536;50.090;14.420;2023-10-31T09:51:38;98023.78;;;15.55;58.00
67740;BME280;54536;50.090;14.420;2023-10-31T09:54:06;98021.16;;;15.62;56.63
67740;BME280;54536;50.090;14.420;2023-10-31T09:56:35;98018.09;;;15.58;56.31
67740;BME280;54536;50.090;14.420;2023-10-31T09:59:01;98020.34;;;15.61;56.24
67740;BME280;54536;50.090;14.420;2023-10-31T10:01:31;98005.50;;;15.80;56.72
67740;BME280;54536;50.090;14.420;2023-10-31T10:03:57;98014.91;;;15.96;56.14
67740;BME280;54536;50.090;14.420;2023-10-31T10:06:24;98017.13;;;15.99;55.04
67740;BME280;54536;50.090;14.420;2023-10-31T10:08:50;98016.28;;;15.99;55.33
67740;BME280;54536;50.090;14.420;2023-10-31T10:11:17;98027.53;;;15.87;55.01
67740;BME280;54536;50.090;14.420;2023-10-31T10:13:44;98023.44;;;15.78;55.45
67740;BME280;54536;50.090;14.420;2023-10-31T10:16:24;98025.69;;;15.88;54.99
67740;BME280;54536;50.090;14.420;2023-10-31T10:18:53;98022.44;;;15.86;55.13
67740;BME280;54536;50.090;14.420;2023-10-31T10:21:19;98023.66;;;16.03;54.57
67740;BME280;54536;50.090;14.420;2023-10-31T10:23:47;98012.44;;;16.01;54.10
67740;BME280;54536;50.090;14.420;2023-10-31T10:26:15;98001.63;;;16.03;53.51
67740;BME280;54536;50.090;14.420;2023-10-31T10:28:41;97998.56;;;16.06;53.21
67740;BME280;54536;50.090;14.420;2023-10-31T10:31:08;98005.69;;;16.12;53.40
67740;BME280;54536;50.090;14.420;2023-10-31T10:33:34;98015.28;;;16.20;53.49
67740;BME280;54536;50.090;14.420;2023-10-31T10:36:02;98027.09;;;16.17;53.67
67740;BME280;54536;50.090;14.420;2023-10-31T10:38:32;98030.78;;;16.16;53.31
67740;BME280;54536;50.090;14.420;2023-10-31T10:41:02;98034.66;;;16.13;53.38
67740;BME280;54536;50.090;14.420;2023-10-31T10:43:37;98035.69;;;16.12;53.70
67740;BME280;54536;50.090;14.420;2023-10-31T10:46:07;98029.97;;;15.96;53.72
67740;BME280;54536;50.090;14.420;2023-10-31T10:48:39;98035.25;;;15.89;53.87
67740;BME280;54536;50.090;14.420;2023-10-31T10:51:21;98019.16;;;15.77;53.30
67740;BME280;54536;50.090;14.420;2023-10-31T10:54:05;98001.44;;;15.78;53.94
67740;BME280;54536;50.090;14.420;2023-10-31T10:56:43;97995.50;;;15.89;53.82
67740;BME280;54536;50.090;14.420;2023-10-31T10:59:16;98025.06;;;15.73;53.38
67740;BME280;54536;50.090;14.420;2023-10-31T11:01:46;98059.72;;;15.78;53.64
67740;BME280;54536;50.090;14.420;2023-10-31T11:04:13;98088.09;;;15.84;53.48
67740;BME280;54536;50.090;14.420;2023-10-31T11:06:40;98086.47;;;15.96;53.40
67740;BME280;54536;50.090;14.420;2023-10-31T11:09:08;98092.59;;;15.97;53.56
67740;BME280;54536;50.090;14.420;2023-10-31T11:11:38;98098.50;;;15.99;53.09
67740;BME280;54536;50.090;14.420;2023-10-31T11:14:04;98107.88;;;15.95;53.60
67740;BME280;54536;50.090;14.420;2023-10-31T11:16:45;98097.69;;;15.98;53.30
67740;BME280;54536;50.090;14.420;2023-10-31T11:19:13;98099.50;;;15.98;53.34
67740;BME280;54536;50.090;14.420;2023-10-31T11:21:54;98108.50;;;15.97;53.23
67740;BME280;54536;50.090;14.420;2023-10-31T11:24:22;98111.72;;;15.85;53.52
67740;BME280;54536;50.090;14.420;2023-10-31T11:26:59;98114.59;;;15.77;53.78
67740;BME280;54536;50.090;14.420;2023-10-31T11:29:25;98130.28;;;15.85;53.59
67740;BME280;54536;50.090;14.420;2023-10-31T11:31:54;98144.56;;;15.84;53.98
67740;BME280;54536;50.090;14.420;2023-10-31T11:34:22;98155.56;;;15.81;53.96
67740;BME280;54536;50.090;14.420;2023-10-31T11:36:50;98151.88;;;15.82;54.07
67740;BME280;54536;50.090;14.420;2023-10-31T11:39:21;98143.31;;;15.67;54.84
67740;BME280;54536;50.090;14.420;2023-10-31T11:41:55;98140.78;;;15.52;54.84
67740;BME280;54536;50.090;14.420;2023-10-31T11:44:25;98130.41;;;15.57;55.29
67740;BME280;54536;50.090;14.420;2023-10-31T11:46:53;98124.06;;;15.52;55.68
67740;BME280;54536;50.090;14.420;2023-10-31T11:49:47;98127.75;;;15.57;55.60
67740;BME280;54536;50.090;14.420;2023-10-31T11:52:17;98121.44;;;15.65;55.29
67740;BME280;54536;50.090;14.420;2023-10-31T11:54:44;98125.38;;;15.76;55.59
67740;BME280;54536;50.090;14.420;2023-10-31T11:57:10;98119.88;;;15.71;55.61
67740;BME280;54536;50.090;14.420;2023-10-31T11:59:38;98139.03;;;15.73;55.97
67740;BME280;54536;50.090;14.420;2023-10-31T12:02:14;98156.13;;;15.63;56.45
67740;BME280;54536;50.090;14.420;2023-10-31T12:04:41;98151.63;;;15.64;56.55
67740;BME280;54536;50.090;14.420;2023-10-31T12:07:08;98153.44;;;15.57;56.40
67740;BME280;54536;50.090;14.420;2023-10-31T12:09:54;98156.06;;;15.50;57.32
67740;BME280;54536;50.090;14.420;2023-10-31T12:12:30;98156.09;;;15.57;57.01
67740;BME280;54536;50.090;14.420;2023-10-31T12:15:07;98153.22;;;15.52;56.86
67740;BME280;54536;50.090;14.420;2023-10-31T12:17:37;98158.34;;;15.60;56.93
67740;BME280;54536;50.090;14.420;2023-10-31T12:20:07;98167.06;;;15.47;56.90
67740;BME280;54536;50.090;14.420;2023-10-31T12:22:34;98171.50;;;15.46;56.31
67740;BME280;54536;50.090;14.420;2023-10-31T12:25:08;98168.25;;;15.44;56.50
67740;BME280;54536;50.090;14.420;2023-10-31T12:27:49;98153.41;;;15.50;56.09
67740;BME280;54536;50.090;14.420;2023-10-31T12:30:20;98149.09;;;15.42;56.39
67740;BME280;54536;50.090;14.420;2023-10-31T12:32:56;98145.47;;;15.50;56.28
67740;BME280;54536;50.090;14.420;2023-10-31T12:35:24;98141.59;;;15.53;55.91
67740;BME280;54536;50.090;14.420;2023-10-31T12:37:52;98151.34;;;15.45;55.70
67740;BME280;54536;50.090;14.420;2023-10-31T12:40:21;98143.78;;;15.42;55.75
67740;BME280;54536;50.090;14.420;2023-10-31T12:42:49;98154.19;;;15.37;55.50
67740;BME280;54536;50.090;14.420;2023-10-31T12:45:18;98155.81;;;15.38;55.70
67740;BME280;54536;50.090;14.420;2023-10-31T12:47:44;98151.13;;;15.34;55.90
67740;BME280;54536;50.090;14.420;2023-10-31T12:50:15;98149.81;;;15.23;56.16
67740;BME280;54536;50.090;14.420;2023-10-31T12:52:53;98153.16;;;15.38;55.90